Time;durP1;ratioP1;P1;durP2;ratioP2;P2;SDS_P1;SDS_P2;PMS_P1;PMS_P2;Temp;Humidity;BMP_temperature;BMP_pressure;BME280_temperature;BME280_humidity;BME280_pressure;Samples;Min_cycle;Max_cycle;Signal;HPM_P1;HPM_P2
2021/03/11 05:02:00;;;;;;;30.33;17.75;;;5.80;99.90;;;;;;5279134;23;20303;-72
2021/03/11 05:04:27;;;;;;;27.38;17.15;;;5.80;99.90;;;;;;4973105;28;20568;-72
2021/03/11 05:06:53;;;;;;;27.00;16.55;;;5.90;99.90;;;;;;4956363;28;20217;-71
2021/03/11 05:09:20;;;;;;;33.25;19.42;;;5.80;99.90;;;;;;4953952;28;20209;-72
2021/03/11 05:11:46;;;;;;;37.83;19.65;;;5.90;99.90;;;;;;4940755;28;20237;-72
2021/03/11 05:14:12;;;;;;;27.65;17.60;;;5.90;99.90;;;;;;4935131;29;20660;-72
2021/03/11 05:16:38;;;;;;;36.78;19.67;;;5.90;99.90;;;;;;4938214;29;20202;-72
2021/03/11 05:19:05;;;;;;;33.25;20.08;;;5.90;99.90;;;;;;4935023;29;20579;-72
2021/03/11 05:21:33;;;;;;;28.10;17.23;;;5.90;99.90;;;;;;4935828;29;20344;-72
2021/03/11 05:24:00;;;;;;;28.50;16.77;;;5.90;99.90;;;;;;4934709;29;20214;-72
2021/03/11 05:26:27;;;;;;;28.92;19.13;;;5.90;99.90;;;;;;4935288;29;20209;-72
2021/03/11 05:28:53;;;;;;;32.78;19.17;;;5.90;99.90;;;;;;4935177;29;20679;-72
2021/03/11 05:31:19;;;;;;;27.30;17.73;;;5.90;99.90;;;;;;4942057;29;20320;-72
2021/03/11 05:33:46;;;;;;;31.58;17.10;;;5.90;99.90;;;;;;4948826;28;20202;-71
2021/03/11 05:36:13;;;;;;;30.17;16.98;;;6.00;99.90;;;;;;4943299;28;20255;-71
2021/03/11 05:38:42;;;;;;;29.55;18.42;;;6.00;99.90;;;;;;4956177;28;20578;-71
2021/03/11 05:41:09;;;;;;;27.83;17.45;;;6.00;99.90;;;;;;4950267;28;20273;-71
2021/03/11 05:43:36;;;;;;;33.58;20.27;;;6.00;99.90;;;;;;4941770;29;20667;-71
2021/03/11 05:46:03;;;;;;;27.35;17.45;;;6.00;99.90;;;;;;4951620;28;20677;-71
2021/03/11 05:48:32;;;;;;;30.60;18.30;;;6.00;99.90;;;;;;4950666;29;20305;-71
2021/03/11 05:50:59;;;;;;;25.38;17.05;;;6.00;99.90;;;;;;4957353;28;20235;-71
2021/03/11 05:53:26;;;;;;;29.75;16.92;;;6.00;99.90;;;;;;4957179;28;20216;-71
2021/03/11 05:55:52;;;;;;;36.10;20.52;;;6.00;99.90;;;;;;4956221;28;20205;-71
2021/03/11 05:58:19;;;;;;;27.58;17.40;;;6.10;99.90;;;;;;4953845;28;20312;-71
2021/03/11 06:00:46;;;;;;;27.40;17.88;;;6.00;99.90;;;;;;4941121;29;20576;-71
2021/03/11 06:03:15;;;;;;;30.88;18.13;;;6.00;99.90;;;;;;4956345;28;20217;-71
2021/03/11 06:05:42;;;;;;;31.20;18.88;;;6.10;99.90;;;;;;4945144;28;20663;-71
2021/03/11 06:08:09;;;;;;;32.22;19.60;;;6.10;99.90;;;;;;4937796;28;20202;-71
2021/03/11 06:10:39;;;;;;;30.65;19.27;;;6.10;99.90;;;;;;4940000;29;20225;-71
2021/03/11 06:13:05;;;;;;;28.60;18.13;;;6.10;99.90;;;;;;4937711;29;20241;-71
2021/03/11 06:15:33;;;;;;;26.30;17.15;;;6.10;99.90;;;;;;4942910;29;20218;-71
2021/03/11 06:18:00;;;;;;;28.65;18.13;;;6.10;99.90;;;;;;4938080;29;20241;-71
2021/03/11 06:20:26;;;;;;;29.02;18.67;;;6.10;99.90;;;;;;4942015;29;20213;-71
2021/03/11 06:22:54;;;;;;;28.35;17.00;;;6.10;99.90;;;;;;4956877;28;20267;-71
2021/03/11 06:25:21;;;;;;;29.45;16.50;;;6.10;99.90;;;;;;4940513;28;20210;-70
2021/03/11 06:27:49;;;;;;;28.73;16.30;;;6.10;99.90;;;;;;4941818;29;20205;-71
2021/03/11 06:30:32;;;;;;;17.40;12.10;;;6.10;99.90;;;;;;4956689;28;20546;-71
2021/03/11 06:32:59;;;;;;;22.92;15.43;;;6.10;99.90;;;;;;4949273;28;20229;-71
2021/03/11 06:35:26;;;;;;;24.75;16.33;;;6.10;99.90;;;;;;4937286;29;20206;-71
2021/03/11 06:37:53;;;;;;;22.83;16.13;;;6.10;99.90;;;;;;4941587;29;20220;-71
2021/03/11 06:40:20;;;;;;;25.05;16.27;;;6.10;99.90;;;;;;4956128;28;20210;-70
2021/03/11 06:42:49;;;;;;;15.18;12.63;;;6.20;99.90;;;;;;4941560;28;20213;-69
2021/03/11 06:45:24;;;;;;;28.25;16.20;;;6.20;99.90;;;;;;4954732;28;20254;-70
2021/03/11 06:47:52;;;;;;;22.13;13.63;;;6.20;99.90;;;;;;4954558;28;20204;-70
2021/03/11 06:50:21;;;;;;;21.92;13.70;;;6.20;99.90;;;;;;4953599;28;20575;-69
2021/03/11 06:53:04;;;;;;;23.05;15.48;;;6.20;99.90;;;;;;4939494;29;20210;-69
2021/03/11 06:55:31;;;;;;;22.77;13.25;;;6.30;99.90;;;;;;4936289;29;20285;-69
2021/03/11 06:58:15;;;;;;;20.67;13.98;;;6.30;99.90;;;;;;4940963;29;20226;-69
2021/03/11 07:00:42;;;;;;;25.88;16.38;;;6.30;99.90;;;;;;4935933;29;20808;-70
2021/03/11 07:03:08;;;;;;;20.13;14.90;;;6.30;99.90;;;;;;4946206;28;20250;-70
2021/03/11 07:05:39;;;;;;;25.55;15.75;;;6.30;99.90;;;;;;4936381;29;20214;-71
2021/03/11 07:08:07;;;;;;;19.55;14.38;;;6.30;99.90;;;;;;4948051;28;20202;-71
2021/03/11 07:10:34;;;;;;;19.10;12.48;;;6.30;99.90;;;;;;4936170;29;20565;-71
2021/03/11 07:13:02;;;;;;;21.15;14.23;;;6.30;99.90;;;;;;4951969;29;20205;-71
2021/03/11 07:15:30;;;;;;;18.77;13.68;;;6.40;99.90;;;;;;4955512;28;20689;-70
2021/03/11 07:17:57;;;;;;;16.95;12.70;;;6.40;99.90;;;;;;4950325;28;20614;-71
2021/03/11 07:20:24;;;;;;;17.88;12.88;;;6.40;99.90;;;;;;4950451;29;20205;-70
2021/03/11 07:23:12;;;;;;;21.13;12.65;;;6.40;99.90;;;;;;4943101;28;20206;-71
2021/03/11 07:25:40;;;;;;;15.32;11.27;;;6.50;99.90;;;;;;4935967;29;20229;-71
2021/03/11 07:28:10;;;;;;;21.77;13.13;;;6.50;99.90;;;;;;4945506;29;20204;-71
2021/03/11 07:30:50;;;;;;;17.58;13.25;;;6.50;99.90;;;;;;4953493;28;20621;-71
2021/03/11 07:33:19;;;;;;;18.10;10.98;;;6.60;99.90;;;;;;4955002;28;20227;-71
2021/03/11 07:35:47;;;;;;;21.30;12.80;;;6.60;99.90;;;;;;4955386;28;20204;-72
2021/03/11 07:38:17;;;;;;;17.77;11.45;;;6.60;99.90;;;;;;4948719;28;20232;-71
2021/03/11 07:40:46;;;;;;;21.02;13.23;;;6.70;99.90;;;;;;4952916;28;20711;-70
2021/03/11 07:43:13;;;;;;;18.40;13.57;;;6.70;99.90;;;;;;4942498;29;20209;-71
2021/03/11 07:45:41;;;;;;;17.30;10.73;;;6.70;99.90;;;;;;4938306;28;20213;-71
2021/03/11 07:48:09;;;;;;;14.50;10.98;;;6.80;99.90;;;;;;4935920;29;20225;-71
2021/03/11 07:50:35;;;;;;;12.68;10.85;;;6.80;99.90;;;;;;4938037;29;20222;-70
2021/03/11 07:53:04;;;;;;;17.75;11.63;;;6.80;99.90;;;;;;4950478;29;20216;-70
2021/03/11 07:55:31;;;;;;;16.42;10.73;;;6.90;99.90;;;;;;4954030;28;20257;-69
2021/03/11 07:58:00;;;;;;;10.25;9.13;;;6.90;99.90;;;;;;4952099;28;20291;-70
2021/03/11 08:00:28;;;;;;;14.25;10.07;;;7.00;99.90;;;;;;4938221;29;20590;-69
2021/03/11 08:02:59;;;;;;;12.50;9.40;;;7.00;99.90;;;;;;4940344;29;20207;-70
2021/03/11 08:05:27;;;;;;;17.55;8.85;;;7.00;99.90;;;;;;4944884;29;20237;-69
2021/03/11 08:08:13;;;;;;;13.75;10.63;;;7.00;99.90;;;;;;4938521;29;20210;-69
2021/03/11 08:10:41;;;;;;;12.48;10.98;;;7.10;99.90;;;;;;4952155;28;20741;-71
2021/03/11 08:13:35;;;;;;;13.82;10.18;;;7.10;99.90;;;;;;4949999;28;20206;-73
2021/03/11 08:16:22;;;;;;;15.95;11.25;;;7.20;99.90;;;;;;4911971;29;20206;-72
2021/03/11 08:18:49;;;;;;;11.65;9.10;;;7.20;99.90;;;;;;4947677;29;20232;-72
2021/03/11 08:21:42;;;;;;;12.52;9.57;;;7.30;99.90;;;;;;4953075;28;20236;-72
2021/03/11 08:24:42;;;;;;;17.58;10.00;;;7.30;99.90;;;;;;4940697;28;20209;-71
2021/03/11 08:27:47;;;;;;;13.25;10.90;;;7.30;99.90;;;;;;4950096;28;20206;-71
2021/03/11 08:30:50;;;;;;;15.00;11.15;;;7.40;99.90;;;;;;4940996;29;20224;-71
2021/03/11 08:33:46;;;;;;;15.65;10.13;;;7.50;99.90;;;;;;4946268;29;20244;-72
2021/03/11 08:36:36;;;;;;;13.95;10.05;;;7.50;99.90;;;;;;4944729;28;20213;-72
2021/03/11 08:39:31;;;;;;;13.25;10.13;;;7.60;99.90;;;;;;4956264;28;20229;-72
2021/03/11 08:41:58;;;;;;;10.15;9.10;;;7.60;99.90;;;;;;4945946;28;20272;-72
2021/03/11 08:44:45;;;;;;;10.63;9.45;;;7.70;99.90;;;;;;4953371;29;20292;-73
2021/03/11 08:47:12;;;;;;;12.60;9.10;;;7.70;99.90;;;;;;4950016;28;20217;-72
2021/03/11 08:49:42;;;;;;;13.55;9.18;;;7.70;99.90;;;;;;4936102;29;20205;-72
2021/03/11 08:52:42;;;;;;;12.82;9.00;;;7.80;99.90;;;;;;4936630;29;20229;-73
2021/03/11 08:55:31;;;;;;;12.07;9.48;;;7.90;99.90;;;;;;4939567;29;20216;-73
2021/03/11 08:57:58;;;;;;;11.05;8.65;;;8.00;99.90;;;;;;4955056;28;20644;-73
2021/03/11 09:00:55;;;;;;;11.82;8.27;;;8.10;99.90;;;;;;4948871;28;20283;-74
2021/03/11 09:03:48;;;;;;;14.15;10.00;;;8.30;99.90;;;;;;4938951;29;20213;-72
2021/03/11 09:06:16;;;;;;;34.80;22.45;;;8.40;99.90;;;;;;4914866;29;20214;-72
2021/03/11 09:08:49;;;;;;;33.55;19.88;;;8.60;99.90;;;;;;4941962;29;20208;-72
2021/03/11 09:11:20;;;;;;;25.02;17.45;;;8.70;99.90;;;;;;4956670;28;20229;-73
2021/03/11 09:13:48;;;;;;;41.65;29.60;;;8.80;99.90;;;;;;4951145;29;20555;-71
2021/03/11 09:16:14;;;;;;;14.48;12.45;;;9.00;99.90;;;;;;4960665;28;20213;-70
2021/03/11 09:18:40;;;;;;;11.93;10.50;;;9.10;99.90;;;;;;4961878;28;20291;-71
2021/03/11 09:21:08;;;;;;;12.00;10.80;;;9.10;99.90;;;;;;4961687;28;20350;-73
2021/03/11 09:23:40;;;;;;;11.90;10.13;;;9.10;99.90;;;;;;4964513;28;20205;-73
2021/03/11 09:26:08;;;;;;;11.15;8.60;;;9.20;99.90;;;;;;4963342;28;20235;-73
2021/03/11 09:28:35;;;;;;;10.60;9.35;;;9.30;99.90;;;;;;4963335;28;20267;-73
2021/03/11 09:31:02;;;;;;;9.98;8.63;;;9.40;99.90;;;;;;4963930;28;20228;-74
2021/03/11 09:33:28;;;;;;;9.25;8.35;;;9.40;99.90;;;;;;4959487;28;20249;-73
2021/03/11 09:35:55;;;;;;;8.80;7.90;;;9.40;99.90;;;;;;4945876;28;20221;-73
2021/03/11 09:38:23;;;;;;;9.77;8.73;;;9.60;99.90;;;;;;4939334;29;20711;-74
2021/03/11 09:40:52;;;;;;;9.13;7.82;;;9.70;99.90;;;;;;4938787;29;20226;-75
2021/03/11 09:43:21;;;;;;;8.15;7.47;;;9.80;99.90;;;;;;4939187;29;20217;-74
2021/03/11 09:45:50;;;;;;;9.20;8.40;;;9.80;99.90;;;;;;4939053;29;20214;-73
2021/03/11 09:48:20;;;;;;;9.00;8.20;;;9.80;99.90;;;;;;4939044;29;20661;-74
2021/03/11 09:50:52;;;;;;;8.57;7.78;;;9.80;99.90;;;;;;4939209;29;20234;-74
2021/03/11 09:53:19;;;;;;;9.25;8.32;;;9.80;99.90;;;;;;4938721;29;20209;-73
2021/03/11 09:55:45;;;;;;;7.15;6.65;;;9.80;99.90;;;;;;4957701;28;20221;-73
2021/03/11 09:58:16;;;;;;;7.75;6.95;;;9.90;99.90;;;;;;4943965;28;20309;-70
2021/03/11 10:00:44;;;;;;;8.05;7.25;;;10.00;99.90;;;;;;4937080;29;20237;-70
2021/03/11 10:03:18;;;;;;;19.00;15.60;;;10.00;99.90;;;;;;4937486;29;20201;-72
2021/03/11 10:05:46;;;;;;;10.35;9.25;;;10.00;99.90;;;;;;4937502;29;20205;-70
2021/03/11 10:08:28;;;;;;;7.82;7.18;;;9.90;99.90;;;;;;4948106;29;20237;-70
2021/03/11 10:11:09;;;;;;;9.25;8.20;;;9.80;99.90;;;;;;4954093;29;20575;-73
2021/03/11 10:13:46;;;;;;;5.72;5.22;;;9.80;99.90;;;;;;4941982;28;20225;-73
2021/03/11 10:16:14;;;;;;;6.00;5.50;;;9.90;99.90;;;;;;4937771;29;20637;-73
2021/03/11 10:18:59;;;;;;;6.90;6.30;;;9.90;99.90;;;;;;4938676;29;20236;-73
2021/03/11 10:21:25;;;;;;;6.40;5.90;;;10.00;99.90;;;;;;4944048;28;20229;-74
2021/03/11 10:23:52;;;;;;;5.65;5.25;;;9.90;99.90;;;;;;4955215;28;20292;-74
2021/03/11 10:26:20;;;;;;;5.65;5.10;;;9.90;99.90;;;;;;4947880;28;20587;-71
2021/03/11 10:28:48;;;;;;;7.35;6.80;;;9.90;99.90;;;;;;4936844;29;20309;-70
2021/03/11 10:31:15;;;;;;;4.85;4.50;;;10.00;99.90;;;;;;4936654;29;20640;-71
2021/03/11 10:33:43;;;;;;;5.13;4.57;;;10.20;99.90;;;;;;4946662;29;20548;-71
2021/03/11 10:36:14;;;;;;;5.13;4.72;;;10.30;99.90;;;;;;4937120;29;20210;-71
2021/03/11 10:38:41;;;;;;;4.07;3.88;;;10.50;99.90;;;;;;4943454;28;20300;-71
2021/03/11 10:41:12;;;;;;;5.40;5.05;;;10.60;99.90;;;;;;4955182;28;20233;-71
2021/03/11 10:43:40;;;;;;;4.07;3.88;;;10.80;99.90;;;;;;4951630;28;20632;-71
2021/03/11 10:46:06;;;;;;;3.78;3.58;;;10.90;99.90;;;;;;4951869;28;20206;-72
2021/03/11 10:48:48;;;;;;;3.17;3.08;;;11.00;99.90;;;;;;4945355;29;20208;-71
2021/03/11 10:51:19;;;;;;;3.60;3.40;;;11.10;99.90;;;;;;4956129;28;20303;-72
2021/03/11 10:53:45;;;;;;;3.22;3.13;;;11.10;99.90;;;;;;4945653;28;20206;-72
2021/03/11 10:56:12;;;;;;;3.58;3.38;;;11.10;99.90;;;;;;4955062;28;20201;-71
2021/03/11 10:58:39;;;;;;;3.90;3.70;;;11.10;99.90;;;;;;4955012;28;20663;-72
2021/03/11 11:01:07;;;;;;;3.10;3.00;;;11.10;99.90;;;;;;4954917;28;20237;-72
2021/03/11 11:03:33;;;;;;;2.90;2.70;;;11.10;99.90;;;;;;4938959;28;20210;-72
2021/03/11 11:06:00;;;;;;;3.40;3.20;;;11.10;99.90;;;;;;4952946;29;20205;-73
2021/03/11 11:08:27;;;;;;;3.20;3.00;;;11.10;99.90;;;;;;4952538;28;20272;-72
2021/03/11 11:10:54;;;;;;;3.50;3.30;;;11.20;99.90;;;;;;4954055;28;20248;-74
2021/03/11 11:13:20;;;;;;;3.30;3.20;;;11.20;99.90;;;;;;4953472;28;20676;-73
2021/03/11 11:15:46;;;;;;;3.35;3.15;;;11.20;99.90;;;;;;4949776;28;20213;-73
2021/03/11 11:18:12;;;;;;;5.60;5.10;;;11.30;99.90;;;;;;4939306;29;20213;-73
2021/03/11 11:20:39;;;;;;;3.92;3.70;;;11.50;99.90;;;;;;4947946;28;20557;-74
2021/03/11 11:23:06;;;;;;;3.80;3.35;;;11.60;99.90;;;;;;4937538;29;20210;-73
2021/03/11 11:25:32;;;;;;;3.92;3.70;;;11.70;99.90;;;;;;4955801;28;20217;-73
2021/03/11 11:27:59;;;;;;;3.35;3.20;;;11.70;99.90;;;;;;4953109;28;20532;-73
2021/03/11 11:30:26;;;;;;;3.17;2.97;;;11.80;99.90;;;;;;4937785;29;20241;-73
2021/03/11 11:32:53;;;;;;;4.35;3.95;;;11.90;99.90;;;;;;4939442;28;20228;-74
2021/03/11 11:35:19;;;;;;;3.30;3.08;;;11.90;99.90;;;;;;4955176;28;20209;-73
2021/03/11 11:37:45;;;;;;;5.28;3.80;;;12.00;99.90;;;;;;4955142;28;20213;-76
2021/03/11 11:40:13;;;;;;;5.20;4.80;;;12.00;99.90;;;;;;4936370;29;20297;-73
2021/03/11 11:42:39;;;;;;;5.07;4.60;;;12.10;99.90;;;;;;4936261;29;20221;-73
2021/03/11 11:45:08;;;;;;;4.45;3.40;;;12.20;99.90;;;;;;4937443;29;20206;-73
2021/03/11 11:47:34;;;;;;;4.95;4.53;;;12.30;99.90;;;;;;4954385;28;20213;-73
2021/03/11 11:50:00;;;;;;;5.88;4.28;;;12.40;99.90;;;;;;4938875;28;20208;-73
2021/03/11 11:52:26;;;;;;;4.60;4.20;;;12.50;99.90;;;;;;4949042;28;20707;-72
2021/03/11 11:54:54;;;;;;;9.95;5.95;;;12.50;99.90;;;;;;4952743;28;20209;-73
2021/03/11 11:57:21;;;;;;;4.15;3.80;;;12.50;99.90;;;;;;4951997;28;20210;-73
2021/03/11 11:59:47;;;;;;;4.10;3.75;;;12.50;99.90;;;;;;4944094;29;20256;-73
2021/03/11 12:02:14;;;;;;;5.75;4.15;;;12.50;99.90;;;;;;4952533;28;20288;-73
2021/03/11 12:04:40;;;;;;;4.10;3.70;;;12.50;99.90;;;;;;4935536;29;20260;-73
2021/03/11 12:07:06;;;;;;;5.15;4.10;;;12.50;99.90;;;;;;4941693;28;20261;-73
2021/03/11 12:09:33;;;;;;;4.50;4.20;;;12.50;99.90;;;;;;4935876;29;20194;-74
2021/03/11 12:11:59;;;;;;;4.55;4.35;;;12.60;99.90;;;;;;4945794;29;20225;-73
2021/03/11 12:14:26;;;;;;;4.40;4.03;;;12.60;99.90;;;;;;4938458;29;20540;-74
2021/03/11 12:16:53;;;;;;;4.60;4.22;;;12.60;99.90;;;;;;4936547;29;20205;-74
2021/03/11 12:19:19;;;;;;;5.13;4.70;;;12.50;99.90;;;;;;4936413;29;20234;-71
2021/03/11 12:21:45;;;;;;;6.03;4.60;;;12.40;99.90;;;;;;4934892;29;20242;-71
2021/03/11 12:24:12;;;;;;;9.50;3.95;;;12.10;99.90;;;;;;4935305;29;20217;-71
2021/03/11 12:26:39;;;;;;;3.80;3.60;;;11.60;99.90;;;;;;4934845;29;20293;-70
2021/03/11 12:29:05;;;;;;;4.97;2.28;;;11.00;99.90;;;;;;4934310;29;20653;-70
2021/03/11 12:31:32;;;;;;;2.60;2.40;;;10.40;99.90;;;;;;4934631;29;20234;-72
2021/03/11 12:33:59;;;;;;;3.88;3.53;;;10.00;99.90;;;;;;4934459;29;20210;-72
2021/03/11 12:36:26;;;;;;;4.40;4.10;;;9.90;99.90;;;;;;4934869;29;20570;-73
2021/03/11 12:38:53;;;;;;;5.03;4.38;;;10.10;99.90;;;;;;4934790;29;20328;-72
2021/03/11 12:41:20;;;;;;;5.35;4.60;;;10.30;99.90;;;;;;4934606;29;20661;-72
2021/03/11 12:43:46;;;;;;;5.55;5.05;;;10.50;99.90;;;;;;4934359;29;20216;-72
2021/03/11 12:46:13;;;;;;;7.35;5.45;;;10.70;99.90;;;;;;4933886;29;20213;-72
2021/03/11 12:48:40;;;;;;;9.38;5.68;;;11.00;99.90;;;;;;4935096;29;20208;-72
2021/03/11 12:51:06;;;;;;;5.90;5.30;;;11.10;99.90;;;;;;4934420;29;20230;-71
2021/03/11 12:53:32;;;;;;;6.88;5.40;;;11.20;99.90;;;;;;4937421;29;20220;-71
2021/03/11 12:55:58;;;;;;;10.20;7.45;;;11.30;99.90;;;;;;4953478;28;20267;-71
2021/03/11 12:58:25;;;;;;;8.15;5.80;;;11.40;99.90;;;;;;4953841;28;20249;-71
2021/03/11 13:00:51;;;;;;;5.95;5.40;;;11.60;99.90;;;;;;4953445;28;20284;-71
2021/03/11 13:03:18;;;;;;;5.57;5.03;;;11.90;99.90;;;;;;4953735;28;20639;-72
2021/03/11 13:05:45;;;;;;;10.98;6.35;;;11.90;99.90;;;;;;4953768;28;20632;-71
2021/03/11 13:08:11;;;;;;;8.65;5.88;;;12.00;99.90;;;;;;4954809;28;20267;-71
2021/03/11 13:10:38;;;;;;;4.35;3.95;;;12.00;99.90;;;;;;4945513;28;20592;-71
2021/03/11 13:13:05;;;;;;;5.20;3.72;;;11.90;99.90;;;;;;4935378;29;20669;-71
2021/03/11 13:15:31;;;;;;;4.60;3.80;;;11.80;99.90;;;;;;4933968;29;20743;-72
2021/03/11 13:17:58;;;;;;;6.80;4.28;;;11.70;99.90;;;;;;4934257;29;20655;-71
2021/03/11 13:20:24;;;;;;;4.65;3.80;;;11.50;99.90;;;;;;4934068;29;20612;-71
2021/03/11 13:22:54;;;;;;;8.90;5.38;;;11.30;99.90;;;;;;4934499;29;20371;-70
2021/03/11 13:25:20;;;;;;;5.35;3.78;;;11.10;99.90;;;;;;4934492;29;20580;-70
2021/03/11 13:27:46;;;;;;;10.02;4.43;;;10.80;99.90;;;;;;4934398;29;20210;-70
2021/03/11 13:30:15;;;;;;;3.53;3.22;;;10.50;99.90;;;;;;4934066;29;20583;-71
2021/03/11 13:32:42;;;;;;;5.35;3.65;;;10.50;99.90;;;;;;4934262;29;20232;-71
2021/03/11 13:35:11;;;;;;;6.95;2.45;;;10.50;99.90;;;;;;4934168;29;20214;-71
2021/03/11 13:37:37;;;;;;;4.80;3.17;;;10.50;99.90;;;;;;4934300;29;20233;-71
2021/03/11 13:40:09;;;;;;;3.17;2.88;;;10.50;99.90;;;;;;4933834;29;20226;-71
2021/03/11 13:42:35;;;;;;;17.60;10.82;;;10.50;99.90;;;;;;4933190;29;20222;-71
2021/03/11 13:45:03;;;;;;;6.13;3.22;;;10.60;99.90;;;;;;4933846;29;20593;-71
2021/03/11 13:47:29;;;;;;;16.05;4.20;;;10.60;99.90;;;;;;4933417;29;20202;-71
2021/03/11 13:49:55;;;;;;;5.90;4.45;;;10.60;99.90;;;;;;4933537;29;20221;-71
2021/03/11 13:52:21;;;;;;;6.78;2.80;;;10.70;99.90;;;;;;4933097;29;20229;-71
2021/03/11 13:54:48;;;;;;;3.42;2.45;;;10.60;99.90;;;;;;4933421;29;20214;-71
2021/03/11 13:57:15;;;;;;;5.45;2.95;;;10.60;99.90;;;;;;4935639;29;20214;-71
2021/03/11 13:59:41;;;;;;;5.68;2.45;;;10.70;99.90;;;;;;4936863;29;20245;-71
2021/03/11 14:02:08;;;;;;;12.25;3.33;;;10.70;99.90;;;;;;4936222;29;20778;-71
2021/03/11 14:04:34;;;;;;;5.00;2.33;;;10.70;99.90;;;;;;4950060;29;20201;-73
2021/03/11 14:07:00;;;;;;;4.88;2.47;;;10.60;99.90;;;;;;4956397;28;20213;-71
2021/03/11 14:09:27;;;;;;;4.93;1.98;;;10.50;99.90;;;;;;4955810;28;20659;-70
2021/03/11 14:11:53;;;;;;;8.90;2.47;;;10.40;99.90;;;;;;4955701;28;20236;-71
2021/03/11 14:14:20;;;;;;;5.47;2.30;;;10.30;99.90;;;;;;4955980;28;20209;-71
2021/03/11 14:16:46;;;;;;;10.68;3.03;;;10.20;99.90;;;;;;4955835;28;20264;-71
2021/03/11 14:19:13;;;;;;;4.97;2.83;;;10.00;99.90;;;;;;4953422;28;20280;-71
2021/03/11 14:21:39;;;;;;;2.95;1.77;;;10.00;99.90;;;;;;4936634;29;20241;-72
2021/03/11 14:24:08;;;;;;;6.78;1.92;;;9.90;99.90;;;;;;4936596;29;20239;-71
2021/03/11 14:26:34;;;;;;;6.93;2.47;;;9.90;99.90;;;;;;4936742;29;20293;-71
2021/03/11 14:29:00;;;;;;;2.50;2.10;;;9.90;99.90;;;;;;4936570;29;20298;-72
2021/03/11 14:31:27;;;;;;;3.92;1.48;;;9.90;99.90;;;;;;4936418;29;20281;-72
2021/03/11 14:33:54;;;;;;;1.05;0.85;;;9.80;99.90;;;;;;4936815;29;20220;-71
2021/03/11 14:36:20;;;;;;;3.03;1.30;;;9.70;99.90;;;;;;4936223;29;20221;-72
2021/03/11 14:38:46;;;;;;;3.17;0.90;;;9.60;99.90;;;;;;4936521;29;20272;-70
2021/03/11 14:41:12;;;;;;;2.95;1.20;;;9.60;99.90;;;;;;4936018;29;20300;-72
2021/03/11 14:43:38;;;;;;;1.10;0.70;;;9.60;99.90;;;;;;4936113;29;20217;-70
2021/03/11 14:46:05;;;;;;;3.22;1.00;;;9.60;99.90;;;;;;4936011;29;20694;-70
2021/03/11 14:48:32;;;;;;;1.05;1.00;;;9.50;99.90;;;;;;4936446;29;20577;-71
2021/03/11 14:50:59;;;;;;;3.63;0.80;;;9.50;99.90;;;;;;4940896;29;20232;-71
2021/03/11 14:53:26;;;;;;;1.02;1.02;;;9.40;99.90;;;;;;4955108;28;20208;-71
2021/03/11 14:55:52;;;;;;;1.27;1.27;;;9.50;99.90;;;;;;4954866;28;20215;-71
2021/03/11 14:58:19;;;;;;;1.65;1.00;;;9.50;99.90;;;;;;4955403;28;20216;-71
2021/03/11 15:00:45;;;;;;;0.60;0.60;;;9.50;99.90;;;;;;4954629;28;20237;-71
2021/03/11 15:03:12;;;;;;;0.82;0.80;;;9.50;99.90;;;;;;4954950;28;20279;-71
2021/03/11 15:05:40;;;;;;;1.23;1.10;;;9.50;99.90;;;;;;4955073;28;20209;-71
2021/03/11 15:08:07;;;;;;;2.00;1.05;;;9.60;99.90;;;;;;4952733;28;20220;-71
2021/03/11 15:10:33;;;;;;;4.10;1.27;;;9.60;99.90;;;;;;4953959;28;20255;-71
2021/03/11 15:13:00;;;;;;;3.28;1.45;;;9.70;99.90;;;;;;4954665;28;20216;-71
2021/03/11 15:15:28;;;;;;;2.13;1.65;;;9.70;99.90;;;;;;4954673;28;20344;-72
2021/03/11 15:17:54;;;;;;;2.95;1.42;;;9.70;99.90;;;;;;4954713;28;20244;-72
2021/03/11 15:20:21;;;;;;;1.55;1.40;;;9.80;99.90;;;;;;4954767;28;20229;-73
2021/03/11 15:22:48;;;;;;;1.42;1.00;;;9.80;99.90;;;;;;4945807;28;20212;-71
2021/03/11 15:25:15;;;;;;;3.70;2.42;;;9.80;99.90;;;;;;4935413;29;20214;-71
2021/03/11 15:27:41;;;;;;;6.68;1.40;;;9.90;99.90;;;;;;4935875;29;20217;-71
2021/03/11 15:30:09;;;;;;;2.67;1.52;;;9.90;99.90;;;;;;4935409;29;20592;-71
2021/03/11 15:32:36;;;;;;;1.38;1.05;;;9.90;99.90;;;;;;4934760;29;20672;-71
2021/03/11 15:35:02;;;;;;;2.17;1.10;;;10.00;99.90;;;;;;4935813;29;20206;-70
2021/03/11 15:37:28;;;;;;;5.07;1.70;;;10.00;99.90;;;;;;4937929;29;20273;-73
2021/03/11 15:39:55;;;;;;;2.03;1.85;;;9.90;99.90;;;;;;4953439;29;20257;-72
2021/03/11 15:42:21;;;;;;;6.40;1.50;;;9.90;99.90;;;;;;4956250;28;20232;-72
2021/03/11 15:44:48;;;;;;;2.10;1.90;;;9.90;99.90;;;;;;4956156;28;20236;-68
2021/03/11 15:47:14;;;;;;;3.97;1.20;;;9.80;99.90;;;;;;4942306;28;20237;-74
2021/03/11 15:49:41;;;;;;;4.95;1.52;;;9.80;99.90;;;;;;4936205;29;20206;-73
2021/03/11 15:52:07;;;;;;;2.45;1.20;;;9.90;99.90;;;;;;4936596;29;20234;-73
2021/03/11 15:54:33;;;;;;;3.78;1.20;;;9.80;99.90;;;;;;4937321;29;20198;-73
2021/03/11 15:57:00;;;;;;;4.03;2.05;;;9.80;99.90;;;;;;4935452;29;20214;-71
2021/03/11 15:59:27;;;;;;;1.65;1.55;;;9.70;99.90;;;;;;4951615;28;20225;-71
2021/03/11 16:01:53;;;;;;;5.20;1.90;;;9.70;99.90;;;;;;4953542;28;20244;-71
2021/03/11 16:04:19;;;;;;;4.90;1.55;;;9.70;99.90;;;;;;4935907;28;20618;-71
2021/03/11 16:06:45;;;;;;;6.38;1.92;;;9.80;99.90;;;;;;4934967;29;20265;-71
2021/03/11 16:09:11;;;;;;;3.15;2.55;;;9.80;99.90;;;;;;4949000;29;20588;-71
2021/03/11 16:11:38;;;;;;;4.63;2.03;;;9.70;99.90;;;;;;4940709;28;20309;-71
2021/03/11 16:14:05;;;;;;;3.03;1.70;;;9.80;99.90;;;;;;4951329;29;20220;-71
2021/03/11 16:16:31;;;;;;;4.07;1.73;;;9.70;99.90;;;;;;4950276;28;20213;-71
2021/03/11 16:18:57;;;;;;;3.70;2.65;;;9.70;99.90;;;;;;4941524;28;20239;-71
2021/03/11 16:21:24;;;;;;;3.95;2.33;;;9.70;99.90;;;;;;4948332;28;20225;-72
2021/03/11 16:23:51;;;;;;;10.82;1.90;;;9.60;99.90;;;;;;4953013;28;20224;-71
2021/03/11 16:26:18;;;;;;;6.82;4.05;;;9.50;99.90;;;;;;4943802;28;20569;-72
2021/03/11 16:28:44;;;;;;;1.60;1.60;;;9.30;99.90;;;;;;4935380;29;20215;-71
2021/03/11 16:31:11;;;;;;;4.50;2.17;;;9.00;99.90;;;;;;4936613;29;20237;-71
2021/03/11 16:33:38;;;;;;;2.95;1.90;;;8.70;99.90;;;;;;4938817;29;20205;-70
2021/03/11 16:36:05;;;;;;;2.97;1.85;;;8.50;99.90;;;;;;4943622;28;20688;-70
2021/03/11 16:38:31;;;;;;;2.97;1.23;;;8.50;99.90;;;;;;4936605;29;20593;-71
2021/03/11 16:40:58;;;;;;;2.35;1.45;;;8.50;99.90;;;;;;4941436;28;20226;-72
2021/03/11 16:43:25;;;;;;;3.22;2.13;;;8.30;99.90;;;;;;4940158;28;20280;-71
2021/03/11 16:45:51;;;;;;;5.38;2.15;;;8.20;99.90;;;;;;4935289;29;20648;-72
2021/03/11 16:48:19;;;;;;;4.80;1.70;;;8.20;99.90;;;;;;4940429;28;20225;-71
2021/03/11 16:50:47;;;;;;;5.93;2.13;;;8.10;99.90;;;;;;4933969;29;20257;-72
2021/03/11 16:53:14;;;;;;;1.67;1.50;;;8.10;99.90;;;;;;4933778;29;20280;-71
2021/03/11 16:55:41;;;;;;;1.52;1.42;;;8.00;99.90;;;;;;4950630;29;20624;-70
2021/03/11 16:58:07;;;;;;;3.10;2.63;;;7.90;99.90;;;;;;4939836;28;20217;-72
2021/03/11 17:00:34;;;;;;;6.07;3.35;;;7.90;99.90;;;;;;4946631;29;20289;-71
2021/03/11 17:03:00;;;;;;;4.78;2.42;;;7.80;99.90;;;;;;4941266;29;20201;-71
2021/03/11 17:05:27;;;;;;;3.53;2.38;;;7.80;99.90;;;;;;4947625;28;20236;-72
2021/03/11 17:07:53;;;;;;;2.70;2.50;;;7.80;99.90;;;;;;4934383;29;20249;-72
2021/03/11 17:10:20;;;;;;;6.32;1.95;;;7.70;99.90;;;;;;4948210;29;20206;-72
2021/03/11 17:12:46;;;;;;;7.13;1.60;;;7.70;99.90;;;;;;4947686;28;20582;-73
2021/03/11 17:15:13;;;;;;;3.15;2.35;;;7.80;99.90;;;;;;4942296;28;20575;-72
2021/03/11 17:17:40;;;;;;;4.93;2.33;;;7.80;99.90;;;;;;4951066;28;20205;-73
2021/03/11 17:20:08;;;;;;;7.30;3.03;;;7.90;99.90;;;;;;4937587;28;20237;-72
2021/03/11 17:22:35;;;;;;;10.40;4.20;;;8.00;99.90;;;;;;4942214;29;20217;-72
2021/03/11 17:25:01;;;;;;;4.60;2.55;;;8.00;99.90;;;;;;4940973;28;20216;-71
2021/03/11 17:27:28;;;;;;;3.67;2.50;;;8.00;99.90;;;;;;4949106;28;20575;-73
2021/03/11 17:29:55;;;;;;;2.83;2.63;;;8.00;99.90;;;;;;4945617;28;20289;-72
2021/03/11 17:32:21;;;;;;;4.32;2.72;;;8.10;99.90;;;;;;4943206;28;20603;-72
2021/03/11 17:34:48;;;;;;;7.72;3.65;;;8.10;99.90;;;;;;4939344;29;20210;-73
2021/03/11 17:37:14;;;;;;;9.65;4.65;;;8.10;99.90;;;;;;4951411;29;20209;-72
2021/03/11 17:39:41;;;;;;;6.80;3.22;;;8.10;99.90;;;;;;4948579;28;20226;-72
2021/03/11 17:42:08;;;;;;;8.45;3.55;;;8.00;99.90;;;;;;4936845;28;20222;-72
2021/03/11 17:44:34;;;;;;;7.90;3.38;;;8.00;99.90;;;;;;4945474;29;20664;-72
2021/03/11 17:47:01;;;;;;;10.35;3.88;;;7.90;99.90;;;;;;4950256;29;20227;-72
2021/03/11 17:49:27;;;;;;;6.03;3.00;;;7.90;99.90;;;;;;4938136;29;20649;-72
2021/03/11 17:51:53;;;;;;;8.48;4.40;;;7.80;99.90;;;;;;4938527;29;20645;-72
2021/03/11 17:54:19;;;;;;;5.88;3.92;;;7.80;99.90;;;;;;4938867;28;20205;-72
2021/03/11 17:56:46;;;;;;;3.92;2.20;;;7.80;99.90;;;;;;4937046;29;20261;-72